createdAt,value
2018-09-30T00:02:07.858Z,98897.23
2018-09-30T00:04:36.332Z,98904.47
2018-09-30T00:07:04.873Z,98901.75
2018-09-30T00:09:33.405Z,98895.62
2018-09-30T00:12:03.240Z,98900.19
2018-09-30T00:14:31.951Z,98893.53
2018-09-30T00:17:00.768Z,98894.95
2018-09-30T00:19:29.307Z,98898.10
2018-09-30T00:21:57.877Z,98886.69
2018-09-30T00:24:31.552Z,98886.15
2018-09-30T00:27:02.508Z,98885.78
2018-09-30T00:29:31.543Z,98886.15
2018-09-30T00:32:00.346Z,98886.27
2018-09-30T00:34:29.947Z,98888.45
2018-09-30T00:36:59.695Z,98884.73
2018-09-30T00:39:28.563Z,98889.89
2018-09-30T00:41:57.054Z,98886.28
2018-09-30T00:44:25.590Z,98886.15
2018-09-30T00:46:54.420Z,98881.22
2018-09-30T00:49:23.077Z,98882.00
2018-09-30T00:51:51.778Z,98876.19
2018-09-30T00:54:20.302Z,98871.66
2018-09-30T00:56:48.822Z,98869.30
2018-09-30T00:59:17.382Z,98872.56
2018-09-30T01:01:45.870Z,98865.73
2018-09-30T01:04:14.706Z,98868.88
2018-09-30T01:06:43.198Z,98870.48
2018-09-30T01:09:13.843Z,98862.80
2018-09-30T01:11:42.888Z,98865.66
2018-09-30T01:14:11.516Z,98864.16
2018-09-30T01:16:40.050Z,98867.52
2018-09-30T01:19:08.694Z,98863.31
2018-09-30T01:21:37.593Z,98876.62
2018-09-30T01:24:06.216Z,98866.33
2018-09-30T01:26:34.767Z,98865.78
2018-09-30T01:29:03.347Z,98865.63
2018-09-30T01:31:31.846Z,98864.30
2018-09-30T01:34:00.513Z,98859.46
2018-09-30T01:36:28.952Z,98860.13
2018-09-30T01:38:57.390Z,98859.36
2018-09-30T01:41:25.961Z,98851.92
2018-09-30T01:43:54.525Z,98849.16
2018-09-30T01:46:23.070Z,98850.49
2018-09-30T01:48:51.669Z,98849.16
2018-09-30T01:51:20.253Z,98854.03
2018-09-30T01:53:48.761Z,98842.97
2018-09-30T01:56:17.249Z,98848.56
2018-09-30T01:58:45.737Z,98845.69
2018-09-30T02:01:14.653Z,98841.48
2018-09-30T02:03:43.137Z,98838.19
2018-09-30T02:06:11.681Z,98839.24
2018-09-30T02:08:40.191Z,98839.80
2018-09-30T02:11:08.667Z,98843.94
2018-09-30T02:13:37.150Z,98844.00
2018-09-30T02:16:05.670Z,98848.02
2018-09-30T02:18:34.189Z,98847.83
2018-09-30T02:21:02.961Z,98847.10
2018-09-30T02:23:32.261Z,98841.38
2018-09-30T02:26:01.189Z,98847.10
2018-09-30T02:28:29.654Z,98846.64
2018-09-30T02:30:58.130Z,98843.15
2018-09-30T02:33:26.650Z,98845.13
2018-09-30T02:35:55.143Z,98840.21
2018-09-30T02:38:23.834Z,98841.45
2018-09-30T02:40:52.612Z,98844.48
2018-09-30T02:43:21.198Z,98837.83
2018-09-30T02:45:49.753Z,98837.27
2018-09-30T02:48:18.266Z,98839.38
2018-09-30T02:50:46.830Z,98834.63
2018-09-30T02:53:15.429Z,98832.64
2018-09-30T02:55:43.937Z,98830.43
2018-09-30T02:58:12.593Z,98829.58
2018-09-30T03:00:41.061Z,98829.31
2018-09-30T03:03:09.555Z,98826.09
2018-09-30T03:05:38.022Z,98821.55
2018-09-30T03:08:11.947Z,98815.38
2018-09-30T03:10:40.506Z,98815.19
2018-09-30T03:13:08.991Z,98812.08
2018-09-30T03:15:37.561Z,98813.20
2018-09-30T03:18:06.353Z,98806.84
2018-09-30T03:20:34.937Z,98806.48
2018-09-30T03:23:03.482Z,98814.63
2018-09-30T03:25:32.075Z,98811.13
2018-09-30T03:28:00.925Z,98804.68
2018-09-30T03:30:29.490Z,98816.56
2018-09-30T03:32:58.034Z,98810.77
2018-09-30T03:35:26.519Z,98809.98
2018-09-30T03:37:55.073Z,98812.45
2018-09-30T03:40:24.006Z,98806.38
2018-09-30T03:42:52.634Z,98807.06
2018-09-30T03:45:21.079Z,98808.11
2018-09-30T03:47:49.580Z,98797.28
2018-09-30T03:50:18.042Z,98799.38
2018-09-30T03:52:46.530Z,98798.05
2018-09-30T03:55:15.001Z,98800.91
2018-09-30T03:57:43.541Z,98794.91
2018-09-30T04:00:12.107Z,98793.12
2018-09-30T04:02:40.562Z,98790.47
2018-09-30T04:05:09.147Z,98790.84
2018-09-30T04:07:37.686Z,98792.66
2018-09-30T04:10:06.318Z,98792.58
2018-09-30T04:12:34.777Z,98790.19
2018-09-30T04:15:03.293Z,98789.64
2018-09-30T04:17:31.864Z,98794.95
2018-09-30T04:20:00.486Z,98793.51
2018-09-30T04:22:29.033Z,98795.52
2018-09-30T04:24:57.506Z,98783.27
2018-09-30T04:27:25.974Z,98792.02
2018-09-30T04:29:54.516Z,98789.72
2018-09-30T04:32:23.054Z,98798.75
2018-09-30T04:34:51.702Z,98794.11
2018-09-30T04:37:20.235Z,98790.97
2018-09-30T04:39:48.717Z,98784.89
2018-09-30T04:42:17.262Z,98781.37
2018-09-30T04:44:45.762Z,98782.15
2018-09-30T04:47:14.562Z,98784.05
2018-09-30T04:49:43.043Z,98787.27
2018-09-30T04:52:11.556Z,98780.97
2018-09-30T04:54:40.105Z,98779.09
2018-09-30T04:57:08.589Z,98783.27
2018-09-30T04:59:37.109Z,98785.73
2018-09-30T05:02:05.730Z,98779.70
2018-09-30T05:04:34.297Z,98780.83
2018-09-30T05:07:03.078Z,98784.25
2018-09-30T05:09:31.655Z,98786.22
2018-09-30T05:12:00.211Z,98781.74
2018-09-30T05:14:28.714Z,98776.72
2018-09-30T05:16:57.242Z,98778.93
2018-09-30T05:19:25.911Z,98773.14
2018-09-30T05:21:54.442Z,98774.67
2018-09-30T05:24:23.057Z,98773.34
2018-09-30T05:26:51.887Z,98767.54
2018-09-30T05:29:20.361Z,98766.20
2018-09-30T05:31:48.938Z,98759.47
2018-09-30T05:34:17.427Z,98758.42
2018-09-30T05:36:45.945Z,98758.16
2018-09-30T05:39:14.952Z,98762.14
2018-09-30T05:41:43.415Z,98761.55
2018-09-30T05:44:11.917Z,98767.03
2018-09-30T05:46:40.633Z,98767.58
2018-09-30T05:49:09.469Z,98769.30
2018-09-30T05:51:37.973Z,98767.05
2018-09-30T05:54:06.615Z,98769.41
2018-09-30T05:56:35.282Z,98768.36
2018-09-30T05:59:03.796Z,98763.94
2018-09-30T06:01:32.371Z,98761.38
2018-09-30T06:04:01.139Z,98761.64
2018-09-30T06:06:29.666Z,98760.38
2018-09-30T06:08:58.180Z,98745.09
2018-09-30T06:11:26.667Z,98752.82
2018-09-30T06:13:55.218Z,98756.59
2018-09-30T06:16:23.885Z,98754.47
2018-09-30T06:18:52.424Z,98758.96
2018-09-30T06:21:20.947Z,98762.38
2018-09-30T06:23:49.425Z,98758.63
2018-09-30T06:26:17.993Z,98752.76
2018-09-30T06:28:46.482Z,98757.10
2018-09-30T06:31:15.129Z,98754.38
2018-09-30T06:33:43.602Z,98744.17
2018-09-30T06:36:12.274Z,98752.72
2018-09-30T06:38:40.735Z,98754.38
2018-09-30T06:41:09.282Z,98752.15
2018-09-30T06:43:37.806Z,98757.33
2018-09-30T06:46:06.279Z,98757.73
2018-09-30T06:48:34.818Z,98752.46
2018-09-30T06:51:03.405Z,98761.60
2018-09-30T06:53:31.908Z,98753.16
2018-09-30T06:56:00.660Z,98760.02
2018-09-30T06:58:29.481Z,98755.48
2018-09-30T07:00:58.005Z,98755.73
2018-09-30T07:03:26.503Z,98751.95
2018-09-30T07:05:54.978Z,98753.92
2018-09-30T07:08:23.547Z,98743.70
2018-09-30T07:10:52.027Z,98751.72
2018-09-30T07:13:20.494Z,98753.75
2018-09-30T07:15:48.966Z,98756.14
2018-09-30T07:18:17.450Z,98749.77
2018-09-30T07:20:45.941Z,98753.46
2018-09-30T07:23:14.597Z,98761.20
2018-09-30T07:25:43.082Z,98753.52
2018-09-30T07:28:11.805Z,98755.59
2018-09-30T07:30:40.253Z,98753.67
2018-09-30T07:33:08.774Z,98758.83
2018-09-30T07:35:37.221Z,98754.14
2018-09-30T07:38:05.714Z,98761.84
2018-09-30T07:40:34.190Z,98754.20
2018-09-30T07:43:02.882Z,98755.53
2018-09-30T07:45:31.345Z,98749.58
2018-09-30T07:47:59.843Z,98744.09
2018-09-30T07:50:28.322Z,98746.87
2018-09-30T07:52:56.815Z,98744.95
2018-09-30T07:55:25.317Z,98748.36
2018-09-30T07:57:53.838Z,98748.09
2018-09-30T08:00:22.337Z,98746.38
2018-09-30T08:02:50.893Z,98746.62
2018-09-30T08:05:19.410Z,98749.11
2018-09-30T08:07:47.957Z,98746.17
2018-09-30T08:10:16.553Z,98745.14
2018-09-30T08:12:45.081Z,98744.03
2018-09-30T08:15:13.553Z,98748.19
2018-09-30T08:17:42.041Z,98747.63
2018-09-30T08:20:10.476Z,98751.75
2018-09-30T08:22:38.996Z,98746.42
2018-09-30T08:25:07.727Z,98744.68
2018-09-30T08:27:36.161Z,98745.39
2018-09-30T08:30:04.702Z,98744.31
2018-09-30T08:32:33.290Z,98742.44
2018-09-30T08:35:01.818Z,98746.30
2018-09-30T08:37:35.625Z,98743.03
2018-09-30T08:40:04.209Z,98749.94
2018-09-30T08:42:32.694Z,98742.46
2018-09-30T08:45:01.220Z,98740.00
2018-09-30T08:47:29.812Z,98745.64
2018-09-30T08:49:58.334Z,98742.55
2018-09-30T08:52:26.830Z,98739.70
2018-09-30T08:54:56.965Z,98743.95
2018-09-30T08:57:25.398Z,98732.36
2018-09-30T08:59:53.930Z,98740.77
2018-09-30T09:02:22.898Z,98732.30
2018-09-30T09:04:51.349Z,98735.63
2018-09-30T09:07:19.878Z,98740.09
2018-09-30T09:09:48.351Z,98737.16
2018-09-30T09:12:16.989Z,98732.11
2018-09-30T09:14:45.506Z,98726.34
2018-09-30T09:17:14.025Z,98728.17
2018-09-30T09:19:42.609Z,98724.80
2018-09-30T09:22:11.257Z,98725.20
2018-09-30T09:24:39.746Z,98723.79
2018-09-30T09:27:08.201Z,98721.50
2018-09-30T09:29:36.697Z,98720.72
2018-09-30T09:32:05.207Z,98716.95
2018-09-30T09:34:33.666Z,98710.95
2018-09-30T09:37:02.482Z,98715.39
2018-09-30T09:39:30.958Z,98720.45
2018-09-30T09:41:59.406Z,98715.72
2018-09-30T09:44:27.918Z,98710.97
2018-09-30T09:46:56.415Z,98704.34
2018-09-30T09:49:25.103Z,98702.86
2018-09-30T09:51:53.684Z,98692.33
2018-09-30T09:54:22.255Z,98682.95
2018-09-30T09:56:50.717Z,98677.98
2018-09-30T09:59:19.253Z,98687.27
2018-09-30T10:01:47.660Z,98683.39
2018-09-30T10:04:16.420Z,98673.00
2018-09-30T10:06:44.944Z,98668.26
2018-09-30T10:09:13.526Z,98673.29
2018-09-30T10:11:42.022Z,98660.69
2018-09-30T10:14:10.549Z,98657.37
2018-09-30T10:16:38.986Z,98652.92
2018-09-30T10:19:07.625Z,98647.16
2018-09-30T10:21:36.149Z,98648.91
2018-09-30T10:24:04.644Z,98643.17
2018-09-30T10:26:33.110Z,98642.67
2018-09-30T10:29:01.854Z,98646.73
2018-09-30T10:31:30.415Z,98632.46
2018-09-30T10:33:58.899Z,98636.06
2018-09-30T10:36:27.336Z,98629.27
2018-09-30T10:38:55.929Z,98637.39
2018-09-30T10:41:24.430Z,98631.31
2018-09-30T10:43:53.050Z,98628.02
2018-09-30T10:46:21.670Z,98617.48
2018-09-30T10:48:50.226Z,98615.61
2018-09-30T10:51:18.753Z,98613.20
2018-09-30T10:53:47.234Z,98611.55
2018-09-30T10:56:15.991Z,98613.25
2018-09-30T10:58:44.761Z,98604.58
2018-09-30T11:01:13.482Z,98600.13
2018-09-30T11:03:42.097Z,98596.95
2018-09-30T11:06:10.567Z,98591.03
2018-09-30T11:08:39.105Z,98588.16
2018-09-30T11:11:07.659Z,98580.45
2018-09-30T11:13:36.268Z,98574.53
2018-09-30T11:16:04.899Z,98574.57
2018-09-30T11:18:33.389Z,98573.09
2018-09-30T11:21:02.018Z,98571.61
2018-09-30T11:23:30.554Z,98567.07
2018-09-30T11:25:59.557Z,98568.96
2018-09-30T11:28:28.037Z,98562.08
2018-09-30T11:30:56.826Z,98557.27
2018-09-30T11:33:25.281Z,98557.97
2018-09-30T11:35:54.026Z,98558.37
2018-09-30T11:38:22.592Z,98550.43
2018-09-30T11:40:51.398Z,98544.20
2018-09-30T11:43:19.915Z,98536.92
2018-09-30T11:45:48.711Z,98538.72
2018-09-30T11:48:17.327Z,98525.71
2018-09-30T11:50:46.158Z,98525.84
2018-09-30T11:53:14.690Z,98521.12
2018-09-30T11:55:43.253Z,98522.70
2018-09-30T11:58:11.734Z,98511.38
2018-09-30T12:00:40.353Z,98505.55
2018-09-30T12:03:08.785Z,98509.56
2018-09-30T12:05:37.447Z,98496.24
2018-09-30T12:08:06.030Z,98493.02
2018-09-30T12:10:34.557Z,98488.73
2018-09-30T12:13:03.388Z,98485.99
2018-09-30T12:15:31.842Z,98478.64
2018-09-30T12:18:00.355Z,98468.28
2018-09-30T12:20:28.898Z,98478.69
2018-09-30T12:22:57.705Z,98463.69
2018-09-30T12:25:26.302Z,98464.42
2018-09-30T12:27:54.905Z,98464.38
2018-09-30T12:30:23.453Z,98460.30
2018-09-30T12:32:52.057Z,98455.34
2018-09-30T12:35:20.568Z,98455.89
2018-09-30T12:37:49.238Z,98447.39
2018-09-30T12:40:17.764Z,98447.80
2018-09-30T12:42:46.226Z,98448.48
2018-09-30T12:45:15.283Z,98446.91
2018-09-30T12:47:43.741Z,98434.95
2018-09-30T12:50:12.325Z,98434.88
2018-09-30T12:52:40.790Z,98431.06
2018-09-30T12:55:09.538Z,98430.86
2018-09-30T12:57:38.069Z,98424.64
2018-09-30T13:00:07.242Z,98421.21
2018-09-30T13:02:35.747Z,98417.90
2018-09-30T13:05:04.341Z,98410.61
2018-09-30T13:07:32.818Z,98405.72
2018-09-30T13:10:01.482Z,98408.52
2018-09-30T13:12:29.984Z,98402.81
2018-09-30T13:14:58.504Z,98410.48
2018-09-30T13:17:27.429Z,98398.32
2018-09-30T13:19:55.947Z,98396.52
2018-09-30T13:22:24.551Z,98400.69
2018-09-30T13:24:53.014Z,98390.66
2018-09-30T13:27:21.483Z,98395.55
2018-09-30T13:29:50.083Z,98394.55
2018-09-30T13:32:18.580Z,98389.51
2018-09-30T13:34:47.022Z,98386.42
2018-09-30T13:37:15.504Z,98386.78
2018-09-30T13:39:43.976Z,98385.17
2018-09-30T13:42:12.566Z,98385.23
2018-09-30T13:44:41.038Z,98381.89
2018-09-30T13:47:09.562Z,98374.39
2018-09-30T13:49:38.026Z,98371.86
2018-09-30T13:52:06.531Z,98367.11
2018-09-30T13:54:35.078Z,98364.49
2018-09-30T13:57:03.805Z,98370.55
2018-09-30T13:59:32.239Z,98359.29
2018-09-30T14:02:00.769Z,98359.72
2018-09-30T14:04:29.346Z,98363.13
2018-09-30T14:06:58.484Z,98353.28
2018-09-30T14:09:26.902Z,98359.42
2018-09-30T14:11:55.366Z,98350.19
2018-09-30T14:14:23.869Z,98348.89
2018-09-30T14:16:52.446Z,98347.48
2018-09-30T14:19:20.957Z,98339.63
2018-09-30T14:21:49.380Z,98343.12
2018-09-30T14:24:17.886Z,98340.61
2018-09-30T14:26:46.393Z,98343.24
2018-09-30T14:29:14.933Z,98343.36
2018-09-30T14:31:43.424Z,98329.02
2018-09-30T14:34:11.975Z,98328.04
2018-09-30T14:36:40.475Z,98318.98
2018-09-30T14:39:11.199Z,98317.67
2018-09-30T14:41:39.718Z,98318.73
2018-09-30T14:44:08.568Z,98316.80
2018-09-30T14:46:37.543Z,98313.59
2018-09-30T14:49:06.406Z,98312.88
2018-09-30T14:51:35.007Z,98307.55
2018-09-30T14:54:03.854Z,98316.75
2018-09-30T14:56:32.253Z,98312.83
2018-09-30T14:59:00.725Z,98301.74
2018-09-30T15:01:29.197Z,98308.09
2018-09-30T15:03:57.621Z,98303.49
2018-09-30T15:06:26.114Z,98309.36
2018-09-30T15:08:54.822Z,98307.77
2018-09-30T15:11:23.526Z,98296.06
2018-09-30T15:13:52.057Z,98296.02
2018-09-30T15:16:20.531Z,98292.23
2018-09-30T15:18:48.995Z,98283.22
2018-09-30T15:21:17.629Z,98278.91
2018-09-30T15:23:46.174Z,98277.58
2018-09-30T15:26:14.733Z,98276.27
2018-09-30T15:28:43.891Z,98267.36
2018-09-30T15:31:12.456Z,98274.55
2018-09-30T15:33:40.902Z,98268.59
2018-09-30T15:36:09.348Z,98264.68
2018-09-30T15:38:37.853Z,98270.97
2018-09-30T15:41:06.349Z,98269.06
2018-09-30T15:43:34.946Z,98270.19
2018-09-30T15:46:03.510Z,98260.59
2018-09-30T15:48:31.993Z,98260.11
2018-09-30T15:51:00.631Z,98250.84
2018-09-30T15:53:29.202Z,98250.03
2018-09-30T15:55:57.665Z,98245.52
2018-09-30T15:58:26.097Z,98248.72
2018-09-30T16:00:54.846Z,98245.45
2018-09-30T16:03:23.366Z,98247.81
2018-09-30T16:05:51.910Z,98244.80
2018-09-30T16:08:20.358Z,98244.97
2018-09-30T16:10:48.838Z,98239.30
2018-09-30T16:13:17.340Z,98235.44
2018-09-30T16:15:45.817Z,98231.82
2018-09-30T16:18:14.363Z,98231.27
2018-09-30T16:20:42.861Z,98233.16
2018-09-30T16:23:11.454Z,98230.28
2018-09-30T16:25:40.342Z,98229.23
2018-09-30T16:28:08.824Z,98230.88
2018-09-30T16:30:37.361Z,98228.05
2018-09-30T16:33:05.893Z,98235.20
2018-09-30T16:35:34.393Z,98232.14
2018-09-30T16:38:02.909Z,98235.50
2018-09-30T16:40:31.641Z,98243.98
2018-09-30T16:43:01.102Z,98236.52
2018-09-30T16:45:29.689Z,98233.88
2018-09-30T16:47:58.258Z,98236.84
2018-09-30T16:50:26.870Z,98239.89
2018-09-30T16:52:55.418Z,98233.76
2018-09-30T16:55:24.090Z,98239.57
2018-09-30T16:57:52.725Z,98236.89
2018-09-30T17:00:21.290Z,98236.61
2018-09-30T17:02:50.102Z,98234.11
2018-09-30T17:05:18.693Z,98230.36
2018-09-30T17:07:47.227Z,98229.31
2018-09-30T17:10:15.912Z,98218.64
2018-09-30T17:12:44.382Z,98229.80
2018-09-30T17:15:13.123Z,98237.09
2018-09-30T17:17:42.661Z,98240.32
2018-09-30T17:20:11.273Z,98241.16
2018-09-30T17:22:39.697Z,98246.34
2018-09-30T17:25:08.260Z,98246.98
2018-09-30T17:27:36.902Z,98245.23
2018-09-30T17:30:05.405Z,98243.45
2018-09-30T17:32:34.230Z,98248.05
2018-09-30T17:35:02.801Z,98247.81
2018-09-30T17:37:31.359Z,98251.02
2018-09-30T17:39:59.810Z,98255.45
2018-09-30T17:42:28.352Z,98257.97
2018-09-30T17:44:56.909Z,98254.70
2018-09-30T17:47:25.688Z,98261.06
2018-09-30T17:49:54.402Z,98268.65
2018-09-30T17:52:23.277Z,98276.27
2018-09-30T17:54:51.750Z,98277.50
2018-09-30T17:57:20.197Z,98275.62
2018-09-30T17:59:48.837Z,98270.72
2018-09-30T18:02:17.314Z,98277.17
2018-09-30T18:04:46.043Z,98274.51
2018-09-30T18:07:14.594Z,98280.22
2018-09-30T18:09:43.512Z,98279.23
2018-09-30T18:12:12.047Z,98286.67
2018-09-30T18:14:40.583Z,98281.30
2018-09-30T18:17:09.102Z,98284.61
2018-09-30T18:19:37.594Z,98281.06
2018-09-30T18:22:06.114Z,98279.72
2018-09-30T18:24:34.601Z,98281.61
2018-09-30T18:27:03.297Z,98281.30
2018-09-30T18:29:31.794Z,98279.55
2018-09-30T18:32:00.341Z,98281.89
2018-09-30T18:34:28.850Z,98282.94
2018-09-30T18:36:57.527Z,98287.13
2018-09-30T18:39:26.013Z,98286.35
2018-09-30T18:41:54.952Z,98291.80
2018-09-30T18:44:23.438Z,98292.81
2018-09-30T18:46:51.936Z,98291.28
2018-09-30T18:49:20.490Z,98287.70
2018-09-30T18:51:48.960Z,98291.20
2018-09-30T18:54:17.650Z,98290.55
2018-09-30T18:56:46.104Z,98293.22
2018-09-30T18:59:14.633Z,98291.33
2018-09-30T19:01:43.250Z,98293.70
2018-09-30T19:04:11.872Z,98293.97
2018-09-30T19:06:40.499Z,98291.33
2018-09-30T19:09:09.657Z,98290.47
2018-09-30T19:11:38.206Z,98284.47
2018-09-30T19:14:07.102Z,98289.18
2018-09-30T19:16:35.762Z,98284.84
2018-09-30T19:19:05.054Z,98287.99
2018-09-30T19:21:33.594Z,98290.44
2018-09-30T19:24:02.186Z,98292.84
2018-09-30T19:26:30.674Z,98297.56
2018-09-30T19:28:59.148Z,98291.31
2018-09-30T19:31:27.760Z,98289.34
2018-09-30T19:33:56.218Z,98292.67
2018-09-30T19:36:24.924Z,98290.17
2018-09-30T19:38:53.433Z,98293.34
2018-09-30T19:41:22.095Z,98291.59
2018-09-30T19:43:50.681Z,98297.72
2018-09-30T19:46:19.233Z,98296.09
2018-09-30T19:48:47.783Z,98297.97
2018-09-30T19:51:16.305Z,98292.80
2018-09-30T19:53:44.794Z,98298.25
2018-09-30T19:56:13.515Z,98296.94
2018-09-30T19:58:42.065Z,98295.27
2018-09-30T20:01:10.686Z,98295.27
2018-09-30T20:03:39.651Z,98296.66
2018-09-30T20:06:08.262Z,98300.16
2018-09-30T20:08:36.875Z,98293.59
2018-09-30T20:11:05.362Z,98293.63
2018-09-30T20:13:33.974Z,98293.95
2018-09-30T20:16:02.536Z,98293.04
2018-09-30T20:18:31.440Z,98291.86
2018-09-30T20:20:59.922Z,98292.03
2018-09-30T20:23:28.491Z,98298.18
2018-09-30T20:25:57.000Z,98294.11
2018-09-30T20:28:26.723Z,98297.14
2018-09-30T20:30:56.713Z,98296.75
2018-09-30T20:33:25.808Z,98295.05
2018-09-30T20:35:54.399Z,98296.27
2018-09-30T20:38:23.111Z,98299.28
2018-09-30T20:40:51.640Z,98301.05
2018-09-30T20:43:20.341Z,98301.45
2018-09-30T20:45:48.814Z,98296.77
2018-09-30T20:48:17.350Z,98288.26
2018-09-30T20:50:45.771Z,98294.69
2018-09-30T20:53:14.273Z,98293.63
2018-09-30T20:55:42.802Z,98298.72
2018-09-30T20:58:11.249Z,98301.59
2018-09-30T21:00:39.715Z,98296.19
2018-09-30T21:03:08.233Z,98308.39
2018-09-30T21:06:29.918Z,98304.70
2018-09-30T21:08:58.509Z,98311.78
2018-09-30T21:11:26.997Z,98310.36
2018-09-30T21:13:55.622Z,98316.69
2018-09-30T21:16:24.396Z,98313.97
2018-09-30T21:18:53.122Z,98316.52
2018-09-30T21:21:21.704Z,98324.51
2018-09-30T21:23:50.265Z,98329.15
2018-09-30T21:26:19.012Z,98328.70
2018-09-30T21:28:47.526Z,98336.52
2018-09-30T21:31:16.241Z,98332.53
2018-09-30T21:33:44.758Z,98331.70
2018-09-30T21:36:13.361Z,98318.50
2018-09-30T21:38:41.925Z,98316.28
2018-09-30T21:41:10.377Z,98322.16
2018-09-30T21:43:39.034Z,98313.87
2018-09-30T21:46:07.652Z,98308.94
2018-09-30T21:48:36.252Z,98308.77
2018-09-30T21:51:04.827Z,98307.55
2018-09-30T21:53:33.321Z,98307.38
2018-09-30T21:56:01.901Z,98305.66
2018-09-30T21:58:30.343Z,98298.63
2018-09-30T22:01:03.432Z,98298.80
2018-09-30T22:03:32.018Z,98309.89
2018-09-30T22:06:00.857Z,98310.22
2018-09-30T22:08:29.350Z,98310.55
2018-09-30T22:10:58.014Z,98317.31
2018-09-30T22:13:26.514Z,98313.23
2018-09-30T22:15:55.106Z,98314.22
2018-09-30T22:18:23.696Z,98313.56
2018-09-30T22:20:52.166Z,98317.28
2018-09-30T22:23:20.618Z,98310.57
2018-09-30T22:25:49.150Z,98311.26
2018-09-30T22:28:17.634Z,98313.62
2018-09-30T22:30:46.094Z,98307.19
2018-09-30T22:33:14.646Z,98306.50
2018-09-30T22:35:43.279Z,98300.94
2018-09-30T22:38:11.722Z,98296.06
2018-09-30T22:40:40.286Z,98292.53
2018-09-30T22:43:08.785Z,98297.41
2018-09-30T22:45:37.311Z,98296.91
2018-09-30T22:48:05.704Z,98295.38
2018-09-30T22:50:34.264Z,98303.27
2018-09-30T22:53:02.775Z,98296.72
2018-09-30T22:55:31.333Z,98293.02
2018-09-30T22:57:59.799Z,98294.86
2018-09-30T23:00:28.282Z,98290.50
2018-09-30T23:02:56.782Z,98291.00
2018-09-30T23:05:25.331Z,98298.75
2018-09-30T23:07:54.110Z,98303.45
2018-09-30T23:10:22.613Z,98299.74
2018-09-30T23:12:51.089Z,98305.78
2018-09-30T23:15:19.557Z,98303.06
2018-09-30T23:17:48.006Z,98305.39
2018-09-30T23:20:17.741Z,98306.05
2018-09-30T23:22:46.833Z,98303.00
2018-09-30T23:25:15.690Z,98305.69
2018-09-30T23:27:44.401Z,98303.98
2018-09-30T23:30:13.153Z,98298.41
2018-09-30T23:32:41.631Z,98293.17
2018-09-30T23:35:10.078Z,98292.81
2018-09-30T23:37:38.580Z,98291.64
2018-09-30T23:40:07.205Z,98295.14
2018-09-30T23:42:36.010Z,98290.08
2018-09-30T23:45:05.217Z,98292.77
2018-09-30T23:47:33.732Z,98290.22
2018-09-30T23:50:02.242Z,98294.63
2018-09-30T23:52:30.730Z,98294.95
2018-09-30T23:54:59.610Z,98302.19
2018-09-30T23:57:28.079Z,98298.62
2018-09-30T23:59:56.513Z,98295.92
